Generic selectors
Exact matches only
Search in title
Search in content
Retour à l'actu

LFPG

METAR

LFPG 260830Z 27010KT 240V300 9999 SCT018 BKN026 BKN033 15/10 Q1026 NOSIG

TAF

LFPG 260646Z
  • | 2606/2712 27010KT 9999 SCT012 BKN040 TX22/2615Z TN13/2606Z
  • | TEMPO 2606/2609 BKN012
  • | BECMG 2618/2621 CAVOK
  • | BECMG 2701/2703 BKN010
  • | BECMG 2709/2711 SCT020